Latest Weather Observations for Meekatharra

IDW60801

Issued at 12:04 pm WST Monday 23 January 2017 (issued every 30 minutes, with the page automatically refreshed every 10 minutes)

About weather observations | Map of weather stations | Latest weather observations for WA | Other Formats
Station Details ID: 007045 Name: MEEKATHARRA AIRPORT Lat: -26.61 Lon: 118.54 Height: 517.0 m
Data from the previous 72 hours. | See also: Recent months at Meekatharra
Date/Time
WST
Temp
°C
App
Temp
°C
Dew
Point
°C
Rel
Hum
%
Delta-T
°C
Wind Press
QNH
hPa
Press
MSL
hPa
Rain since
9am
mm
Dir  Spd
km/h
Gust
km/h
Spd
kts
Gust
kts
23/11:30am 33.9 28.8 7.8 20 14.9 S 24 33 13 18 1011.5 - 0.0
23/11:00am 32.3 27.6 7.9 22 13.8 S 22 33 12 18 1011.8 - 0.0
23/10:30am 30.9 26.5 7.4 23 13.1 S 20 32 11 17 1012.2 - 0.0
23/10:00am 30.3 26.3 8.1 25 12.5 S 19 30 10 16 1012.2 - 0.0
23/09:30am 28.5 24.2 7.7 27 11.5 SSE 20 32 11 17 1012.3 - 0.0
23/09:00am 27.3 22.9 7.2 28 11.0 S 20 28 11 15 1012.4 1008.0 0.0
23/08:30am 26.1 20.9 7.2 30 10.2 S 24 33 13 18 1012.3 - 0.0
23/08:00am 25.1 19.4 6.8 31 9.8 S 26 35 14 19 1012.2 - 0.0
23/07:30am 24.6 19.7 6.8 32 9.5 S 22 30 12 16 1012.1 - 0.0
23/07:00am 24.1 18.4 6.8 33 9.2 S 26 33 14 18 1011.7 - 0.0
23/06:30am 23.8 17.9 7.4 35 8.8 S 28 35 15 19 1011.1 - 0.0
23/06:13am 23.7 17.8 7.3 35 8.8 S 28 41 15 22 1010.9 - 0.0
23/06:00am 23.7 20.2 8.9 39 8.2 S 17 22 9 12 1010.8 1006.4 0.0
23/05:30am 24.1 19.2 8.5 37 8.5 S 24 32 13 17 1010.5 - 0.0
23/05:00am 24.7 19.7 8.2 35 9.0 S 24 37 13 20 1010.1 - 0.0
23/04:30am 25.1 20.5 8.1 34 9.3 S 22 32 12 17 1009.8 - 0.0
23/04:00am 25.9 21.5 7.5 31 10.0 SSW 20 30 11 16 1009.6 - 0.0
23/03:30am 26.9 22.1 7.4 29 10.6 S 22 32 12 17 1009.5 - 0.0
23/03:00am 27.5 21.4 6.8 27 11.2 S 28 35 15 19 1009.3 1005.0 0.0
23/02:30am 28.1 21.9 6.2 25 11.8 S 28 39 15 21 1009.1 - 0.0
23/02:00am 28.7 23.1 5.5 23 12.4 S 24 33 13 18 1008.8 - 0.0
23/01:30am 29.4 24.3 4.1 20 13.2 S 20 32 11 17 1008.4 - 0.0
23/01:00am 29.7 24.1 3.6 19 13.6 S 22 30 12 16 1008.2 - 0.0
23/12:30am 30.0 24.5 3.9 19 13.6 SSW 22 30 12 16 1008.1 - 0.0
23/12:00am 30.6 25.6 4.4 19 13.9 S 20 30 11 16 1008.3 1003.9 0.0
 
Date/Time
WST
Temp
°C
App
Temp
°C
Dew
Point
°C
Rel
Hum
%
Delta-T
°C
Wind Press
QNH
hPa
Press
MSL
hPa
Rain since
9am
mm
Dir  Spd
km/h
Gust
km/h
Spd
kts
Gust
kts
22/11:30pm 31.1 26.3 5.5 20 13.8 SSW 20 35 11 19 1008.3 - 0.0
22/11:00pm 31.3 27.5 7.7 23 13.2 SSW 17 20 9 11 1008.3 - 0.0
22/10:30pm 31.8 27.4 7.5 22 13.6 SSW 20 30 11 16 1008.4 - 0.0
22/10:00pm 32.3 28.0 7.9 22 13.8 SSW 20 28 11 15 1008.4 - 0.0
22/09:30pm 32.9 28.2 7.7 21 14.2 SSW 22 30 12 16 1008.3 - 0.0
22/09:00pm 33.4 28.2 7.4 20 14.7 SSW 24 32 13 17 1008.2 1003.8 0.0
22/08:30pm 33.8 28.7 7.7 20 14.8 SSW 24 32 13 17 1007.9 - 0.0
22/08:00pm 34.3 28.4 7.4 19 15.2 SW 28 35 15 19 1007.4 - 0.0
22/07:30pm 35.3 29.8 7.4 18 15.9 SW 26 37 14 20 1007.0 - 0.0
22/07:00pm 36.1 30.7 6.3 16 16.7 SW 24 35 13 19 1006.6 - 0.0
22/06:30pm 36.9 31.4 6.0 15 17.3 SW 24 32 13 17 1006.2 - 0.0
22/06:00pm 37.9 33.1 5.8 14 18.1 WSW 20 26 11 14 1005.7 1001.4 0.0
22/05:30pm 38.1 33.3 4.9 13 18.4 WSW 19 30 10 16 1005.5 - 0.0
22/05:00pm 38.4 32.7 5.1 13 18.6 SSW 24 33 13 18 1005.5 - 0.0
22/04:30pm 39.1 34.3 4.5 12 19.2 WSW 19 30 10 16 1005.5 - 0.0
22/04:00pm 38.4 34.1 5.1 13 18.6 SSW 17 22 9 12 1005.7 - 0.0
22/03:30pm 39.0 34.1 6.7 14 18.5 SW 22 33 12 18 1006.1 - 0.0
22/03:00pm 38.8 34.2 5.4 13 18.8 W 19 28 10 15 1006.3 1001.9 0.0
22/02:30pm 38.8 34.8 6.5 14 18.4 WSW 17 26 9 14 1006.5 - 0.0
22/02:00pm 38.4 34.3 6.2 14 18.2 SW 17 24 9 13 1006.9 - 0.0
22/01:30pm 38.1 35.3 7.0 15 17.8 S 11 22 6 12 1007.2 - 0.0
22/01:00pm 37.8 35.2 7.7 16 17.4 W 11 19 6 10 1007.5 - 0.0
22/12:30pm 36.9 33.0 7.0 16 17.0 WSW 17 20 9 11 1007.9 - 0.0
22/12:00pm 36.4 33.3 7.4 17 16.6 SSW 13 19 7 10 1008.1 1003.7 0.0
22/11:30am 35.1 32.2 8.0 19 15.5 SW 13 20 7 11 1008.5 - 0.0
22/11:00am 34.8 33.1 9.9 22 14.7 SSW 9 17 5 9 1008.6 - 0.0
22/10:30am 34.2 32.6 10.1 23 14.2 S 9 17 5 9 1008.9 - 0.0
22/10:00am 32.7 31.8 11.3 27 12.8 S 7 11 4 6 1009.1 - 0.0
22/09:30am 31.8 31.0 11.0 28 12.3 WSW 6 11 3 6 1009.1 - 0.0
22/09:00am 30.7 29.6 12.1 32 11.2 S 9 11 5 6 1009.0 1004.6 11.6
22/08:30am 30.0 29.0 12.4 34 10.6 S 9 13 5 7 1009.0 - 11.6
22/08:00am 28.9 26.9 11.5 34 10.3 S 13 15 7 8 1008.7 - 11.6
22/07:30am 28.7 26.9 12.2 36 9.8 S 13 17 7 9 1008.8 - 11.6
22/07:00am 27.7 26.1 11.7 37 9.4 S 11 15 6 8 1008.7 - 11.6
22/06:30am 27.0 27.1 15.4 49 7.2 S 9 13 5 7 1008.4 - 11.6
22/06:00am 25.6 26.3 17.0 59 5.5 S 9 11 5 6 1007.9 1003.5 11.4
22/05:30am 25.2 26.7 18.9 68 4.1 SSW 9 11 5 6 1007.5 - 11.4
22/05:00am 26.0 27.1 18.9 65 4.6 S 11 13 6 7 1007.3 - 11.4
22/04:30am 26.1 28.9 20.4 71 3.8 WNW 6 7 3 4 1007.3 - 11.4
22/04:00am 26.5 28.3 19.6 66 4.6 WNW 9 11 5 6 1006.9 - 11.4
22/03:30am 26.4 28.8 20.9 72 3.7 NNW 9 11 5 6 1006.7 - 11.4
22/03:00am 26.4 29.2 20.5 70 4.0 NW 6 9 3 5 1006.7 1002.3 11.4
22/02:30am 26.7 29.3 20.5 69 4.1 NW 7 9 4 5 1006.6 - 11.4
22/02:00am 27.1 29.1 19.9 64 4.8 WNW 9 11 5 6 1007.1 - 11.4
22/01:30am 28.7 29.3 18.5 54 6.7 NW 13 19 7 10 1006.8 - 11.4
22/01:00am 27.2 29.2 20.8 68 4.3 N 11 13 6 7 1006.5 - 11.4
22/12:30am 27.1 29.8 21.4 71 3.9 N 9 11 5 6 1006.8 - 11.4
22/12:00am 27.4 30.0 20.5 66 4.6 N 7 9 4 5 1007.0 1002.6 11.4
 
Date/Time
WST
Temp
°C
App
Temp
°C
Dew
Point
°C
Rel
Hum
%
Delta-T
°C
Wind Press
QNH
hPa
Press
MSL
hPa
Rain since
9am
mm
Dir  Spd
km/h
Gust
km/h
Spd
kts
Gust
kts
21/11:30pm 27.7 30.1 20.0 63 5.1 ENE 7 9 4 5 1007.2 - 11.4
21/11:00pm 27.5 30.0 20.3 65 4.8 ESE 7 9 4 5 1007.4 - 11.4
21/10:30pm 27.6 28.8 19.9 63 5.1 SE 13 17 7 9 1007.7 - 11.4
21/10:00pm 27.3 29.1 20.4 66 4.6 SSE 11 15 6 8 1007.7 - 11.4
21/09:30pm 27.4 29.7 20.7 67 4.5 ENE 9 19 5 10 1007.6 - 11.4
21/09:00pm 27.8 29.1 19.3 60 5.6 NNE 11 15 6 8 1007.2 1002.8 11.4
21/08:30pm 29.0 29.1 19.9 58 6.1 N 19 26 10 14 1006.7 - 11.4
21/08:00pm 28.0 27.9 20.0 61 5.3 N 20 26 11 14 1006.7 - 11.4
21/07:30pm 27.7 26.8 19.8 62 5.2 N 24 33 13 18 1006.5 - 11.4
21/07:00pm 27.6 25.9 18.9 59 5.7 N 26 33 14 18 1006.1 - 11.2
21/06:36pm 25.2 22.9 19.3 70 3.9 N 30 39 16 21 1006.7 - 11.2
21/06:30pm 25.4 23.0 20.0 72 3.6 N 32 43 17 23 1007.0 - 11.2
21/06:02pm 24.2 22.4 18.8 72 3.5 W 26 33 14 18 1007.5 - 7.6
21/06:00pm 23.6 19.9 19.1 76 2.9 SW 37 56 20 30 1007.5 1003.2 6.0
21/05:59pm 23.8 19.8 18.4 72 3.5 SW 37 56 20 30 1007.4 - 5.4
21/05:55pm 24.1 19.2 18.1 69 3.8 SW 41 56 22 30 1007.0 - 3.0
21/05:53pm 26.5 24.6 19.4 65 4.7 WSW 28 46 15 25 1006.9 - 1.0
21/05:52pm 27.8 26.5 19.8 61 5.3 WSW 26 41 14 22 1006.8 - 0.4
21/05:30pm 32.9 32.0 18.3 42 9.6 WSW 20 39 11 21 1006.1 - 0.0
21/05:00pm 34.6 30.1 16.4 33 11.8 NNW 35 43 19 23 1004.3 - 0.0
21/04:48pm 35.5 30.4 16.8 33 12.2 NNW 39 44 21 24 1004.2 - 0.0
21/04:30pm 37.7 37.3 16.1 28 14.0 NNW 13 24 7 13 1004.3 - 0.0
21/04:00pm 37.2 36.8 16.2 29 13.6 NE 13 20 7 11 1004.2 - 0.0
21/03:30pm 37.2 36.0 16.2 29 13.6 NNE 17 28 9 15 1004.6 - 0.0
21/03:00pm 36.7 34.6 14.6 26 14.1 NNW 19 24 10 13 1004.9 1000.5 0.0
21/02:30pm 35.8 35.6 17.5 34 12.1 NW 15 33 8 18 1005.2 - 0.0
21/02:00pm 37.2 36.6 16.7 29 13.4 NNE 15 20 8 11 1005.5 - 0.0
21/01:30pm 35.7 33.3 16.4 31 12.5 N 24 35 13 19 1006.2 - 0.0
21/01:00pm 35.6 34.3 16.8 32 12.3 NNE 19 24 10 13 1006.6 - 0.0
21/12:30pm 36.0 35.1 17.7 34 12.1 N 19 32 10 17 1007.0 - 0.0
21/12:00pm 35.6 34.5 17.3 33 12.0 N 19 32 10 17 1007.2 1002.8 0.0
21/11:30am 35.0 33.9 17.7 36 11.4 N 20 33 11 18 1007.5 - 0.0
21/11:00am 34.4 33.4 18.0 37 10.8 N 20 30 11 16 1007.9 - 0.0
21/10:30am 33.9 32.9 18.8 41 10.1 N 22 32 12 17 1008.3 - 0.0
21/10:00am 32.2 31.0 18.4 44 9.1 N 22 33 12 18 1008.4 - 0.0
21/09:30am 32.3 31.9 18.8 44 9.0 N 19 30 10 16 1008.5 - 0.0
21/09:00am 30.6 30.1 18.7 49 7.9 N 19 28 10 15 1008.6 1004.2 0.0
21/08:30am 30.1 29.8 19.2 52 7.2 N 19 24 10 13 1008.7 - 0.0
21/08:00am 28.8 29.7 20.0 59 5.9 N 15 20 8 11 1008.7 - 0.0
21/07:30am 27.2 27.5 20.3 66 4.6 NNE 19 24 10 13 1008.5 - 0.0
21/07:00am 27.0 27.6 20.3 66 4.5 NNE 17 26 9 14 1008.3 - 0.0
21/06:30am 26.6 27.2 20.2 68 4.3 NNE 17 26 9 14 1008.2 - 0.0
21/06:00am 26.7 28.0 20.1 67 4.4 NNE 13 17 7 9 1007.9 1003.5 0.0
21/05:30am 26.4 27.3 20.0 68 4.2 NNE 15 24 8 13 1007.3 - 0.0
21/05:00am 26.4 26.8 19.8 67 4.4 N 17 26 9 14 1007.0 - 0.0
21/04:30am 26.7 27.0 19.6 65 4.7 NNE 17 24 9 13 1007.0 - 0.0
21/04:00am 26.9 26.7 19.3 63 5.0 NNE 19 26 10 14 1006.4 - 0.0
21/03:30am 27.0 27.7 19.6 64 4.9 NE 15 20 8 11 1006.1 - 0.0
21/03:00am 27.1 27.5 19.9 64 4.8 N 17 24 9 13 1006.2 1001.8 0.0
21/02:30am 27.2 27.6 19.8 64 4.9 NNE 17 26 9 14 1006.5 - 0.0
21/02:00am 27.6 28.0 19.9 63 5.1 NNE 17 22 9 12 1006.6 - 0.0
21/01:30am 27.9 28.0 19.9 61 5.3 N 19 26 10 14 1006.5 - 0.0
21/01:00am 28.2 28.0 19.7 60 5.6 N 20 26 11 14 1006.6 - 0.0
21/12:30am 30.0 30.3 18.8 51 7.4 N 15 20 8 11 1006.5 - 0.0
21/12:00am 31.9 30.2 13.6 32 11.3 E 15 20 8 11 1006.3 1001.9 0.0
 
Date/Time
WST
Temp
°C
App
Temp
°C
Dew
Point
°C
Rel
Hum
%
Delta-T
°C
Wind Press
QNH
hPa
Press
MSL
hPa
Rain since
9am
mm
Dir  Spd
km/h
Gust
km/h
Spd
kts
Gust
kts
20/11:30pm 32.4 30.1 13.1 31 11.8 ESE 17 20 9 11 1006.6 - 0.0
20/11:00pm 32.8 30.2 11.9 28 12.6 ESE 17 22 9 12 1006.8 - 0.0
20/10:30pm 33.0 30.2 11.5 27 12.9 ESE 17 26 9 14 1006.8 - 0.0
20/10:00pm 33.1 31.3 12.1 27 12.7 ESE 13 19 7 10 1006.6 - 0.0
20/09:30pm 33.1 30.4 11.6 27 12.9 SSE 17 24 9 13 1006.2 - 0.0
20/09:00pm 33.5 30.9 11.9 27 13.1 SSE 17 24 9 13 1006.1 1001.7 0.0
20/08:30pm 33.9 31.2 11.7 26 13.4 SSE 17 22 9 12 1005.7 - 0.0
20/08:00pm 34.4 31.5 10.9 24 14.0 S 17 22 9 12 1005.5 - 0.0
20/07:30pm 34.9 32.1 11.3 24 14.2 S 17 22 9 12 1005.3 - 0.0
20/07:00pm 35.2 31.9 10.9 23 14.6 S 19 26 10 14 1005.0 - 0.0
20/06:30pm 35.9 32.8 11.5 23 14.8 S 19 24 10 13 1004.8 - 0.0
20/06:00pm 36.7 34.3 11.5 22 15.4 S 15 20 8 11 1004.3 999.9 0.0
20/05:30pm 36.8 35.4 12.3 23 15.1 SE 11 13 6 7 1004.0 - 0.0
20/05:00pm 36.6 35.5 12.1 23 15.0 S 9 13 5 7 1003.9 - 0.0
20/04:30pm 36.1 35.7 13.0 25 14.3 S 7 11 4 6 1004.1 - 0.0
20/04:00pm 36.7 36.2 12.8 24 14.8 NNW 7 11 4 6 1004.1 - 0.0
20/03:30pm 37.2 36.1 13.2 23 15.0 SSE 11 22 6 12 1004.2 - 0.0
20/03:00pm 37.6 36.3 13.6 24 15.1 ESE 13 24 7 13 1004.6 1000.2 0.0
20/02:30pm 37.0 35.5 13.1 24 14.9 SSE 13 26 7 14 1005.0 - 0.0
20/02:00pm 35.5 34.6 12.5 25 14.1 SE 9 17 5 9 1005.4 - 0.0
20/01:30pm 35.7 33.7 12.6 25 14.2 SE 15 20 8 11 1006.1 - 0.0
20/01:00pm 35.6 33.3 13.1 25 13.9 ESE 17 32 9 17 1006.4 - 0.0
20/12:30pm 34.6 31.5 11.7 25 13.8 ESE 19 26 10 14 1006.8 - 0.0

Other Formats:

Comma delimited format used in spreadsheet applications
http://www.bom.gov.au/fwo/IDW60801/IDW60801.94430.axf

JavaScript Object Notation format (JSON) in row-major order
http://www.bom.gov.au/fwo/IDW60801/IDW60801.94430.json